sensor_id;sensor_type;location;lat;lon;timestamp;P1;durP1;ratioP1;P2;durP2;ratioP2
12800;SDS011;6464;42.494;27.470;2023-06-22T04:13:49;0.60;;;0.60;;
12800;SDS011;6464;42.494;27.470;2023-06-22T04:16:38;0.95;;;0.95;;
12800;SDS011;6464;42.494;27.470;2023-06-22T04:31:29;0.70;;;0.70;;
12800;SDS011;6464;42.494;27.470;2023-06-22T04:34:02;0.88;;;0.88;;
12800;SDS011;6464;42.494;27.470;2023-06-22T04:36:40;0.90;;;0.90;;
12800;SDS011;6464;42.494;27.470;2023-06-22T04:40:06;1.10;;;1.10;;
12800;SDS011;6464;42.494;27.470;2023-06-22T04:42:47;1.00;;;1.00;;
12800;SDS011;6464;42.494;27.470;2023-06-22T04:45:56;1.00;;;1.00;;
12800;SDS011;6464;42.494;27.470;2023-06-22T04:58:54;0.90;;;0.90;;
12800;SDS011;6464;42.494;27.470;2023-06-22T05:01:44;0.90;;;0.90;;
12800;SDS011;6464;42.494;27.470;2023-06-22T05:04:37;1.00;;;1.00;;
12800;SDS011;6464;42.494;27.470;2023-06-22T05:07:04;1.00;;;1.00;;
12800;SDS011;6464;42.494;27.470;2023-06-22T05:09:33;1.00;;;1.00;;
12800;SDS011;6464;42.494;27.470;2023-06-22T05:12:01;0.90;;;0.90;;
12800;SDS011;6464;42.494;27.470;2023-06-22T05:14:29;0.90;;;0.90;;
12800;SDS011;6464;42.494;27.470;2023-06-22T05:16:56;1.00;;;1.00;;
12800;SDS011;6464;42.494;27.470;2023-06-22T05:19:29;1.00;;;1.00;;
12800;SDS011;6464;42.494;27.470;2023-06-22T05:21:58;1.08;;;1.08;;
12800;SDS011;6464;42.494;27.470;2023-06-22T05:24:25;1.10;;;1.10;;
12800;SDS011;6464;42.494;27.470;2023-06-22T05:26:53;1.30;;;1.30;;
12800;SDS011;6464;42.494;27.470;2023-06-22T05:29:20;1.50;;;1.50;;
12800;SDS011;6464;42.494;27.470;2023-06-22T05:31:48;1.70;;;1.70;;
12800;SDS011;6464;42.494;27.470;2023-06-22T05:34:15;2.10;;;2.10;;
12800;SDS011;6464;42.494;27.470;2023-06-22T05:36:42;2.00;;;2.00;;
12800;SDS011;6464;42.494;27.470;2023-06-22T05:39:12;2.40;;;2.40;;
12800;SDS011;6464;42.494;27.470;2023-06-22T05:41:40;2.20;;;2.20;;
12800;SDS011;6464;42.494;27.470;2023-06-22T05:44:09;2.08;;;2.08;;
12800;SDS011;6464;42.494;27.470;2023-06-22T05:46:36;2.00;;;2.00;;
12800;SDS011;6464;42.494;27.470;2023-06-22T05:49:03;2.10;;;2.10;;
12800;SDS011;6464;42.494;27.470;2023-06-22T05:51:30;2.15;;;2.15;;
12800;SDS011;6464;42.494;27.470;2023-06-22T05:53:57;2.20;;;2.20;;
12800;SDS011;6464;42.494;27.470;2023-06-22T05:56:24;2.20;;;2.20;;
12800;SDS011;6464;42.494;27.470;2023-06-22T05:58:51;2.00;;;2.00;;
12800;SDS011;6464;42.494;27.470;2023-06-22T06:01:20;2.20;;;2.20;;
12800;SDS011;6464;42.494;27.470;2023-06-22T06:03:47;2.10;;;2.10;;
12800;SDS011;6464;42.494;27.470;2023-06-22T06:06:15;2.08;;;2.08;;
12800;SDS011;6464;42.494;27.470;2023-06-22T06:08:42;1.90;;;1.90;;
12800;SDS011;6464;42.494;27.470;2023-06-22T06:11:08;1.80;;;1.80;;
12800;SDS011;6464;42.494;27.470;2023-06-22T06:13:35;2.50;;;2.50;;
12800;SDS011;6464;42.494;27.470;2023-06-22T06:16:03;2.20;;;2.20;;
12800;SDS011;6464;42.494;27.470;2023-06-22T06:18:31;2.20;;;2.20;;
12800;SDS011;6464;42.494;27.470;2023-06-22T06:20:58;2.08;;;2.08;;
12800;SDS011;6464;42.494;27.470;2023-06-22T06:23:25;2.10;;;2.10;;
12800;SDS011;6464;42.494;27.470;2023-06-22T06:25:52;2.30;;;2.30;;
12800;SDS011;6464;42.494;27.470;2023-06-22T06:28:19;2.60;;;2.60;;
12800;SDS011;6464;42.494;27.470;2023-06-22T06:30:46;2.78;;;2.78;;
12800;SDS011;6464;42.494;27.470;2023-06-22T06:33:13;2.60;;;2.60;;
12800;SDS011;6464;42.494;27.470;2023-06-22T06:35:41;2.80;;;2.80;;
12800;SDS011;6464;42.494;27.470;2023-06-22T06:38:08;3.00;;;3.00;;
12800;SDS011;6464;42.494;27.470;2023-06-22T06:40:35;3.10;;;3.10;;
12800;SDS011;6464;42.494;27.470;2023-06-22T06:43:02;3.90;;;3.80;;
12800;SDS011;6464;42.494;27.470;2023-06-22T06:45:29;4.00;;;3.90;;
12800;SDS011;6464;42.494;27.470;2023-06-22T06:47:58;3.90;;;3.80;;
12800;SDS011;6464;42.494;27.470;2023-06-22T06:50:25;4.30;;;4.20;;
12800;SDS011;6464;42.494;27.470;2023-06-22T06:52:53;4.10;;;4.00;;
12800;SDS011;6464;42.494;27.470;2023-06-22T06:55:21;4.05;;;3.95;;
12800;SDS011;6464;42.494;27.470;2023-06-22T06:57:50;5.30;;;5.20;;
12800;SDS011;6464;42.494;27.470;2023-06-22T07:00:18;5.50;;;5.40;;
12800;SDS011;6464;42.494;27.470;2023-06-22T07:02:45;5.40;;;5.30;;
12800;SDS011;6464;42.494;27.470;2023-06-22T07:05:13;5.25;;;5.15;;
12800;SDS011;6464;42.494;27.470;2023-06-22T07:07:40;5.30;;;5.20;;
12800;SDS011;6464;42.494;27.470;2023-06-22T07:10:09;5.60;;;5.50;;
12800;SDS011;6464;42.494;27.470;2023-06-22T07:12:36;5.43;;;5.32;;
12800;SDS011;6464;42.494;27.470;2023-06-22T07:15:03;5.50;;;5.40;;
12800;SDS011;6464;42.494;27.470;2023-06-22T07:17:33;5.50;;;5.40;;
12800;SDS011;6464;42.494;27.470;2023-06-22T07:20:00;5.70;;;5.60;;
12800;SDS011;6464;42.494;27.470;2023-06-22T07:22:27;6.00;;;5.90;;
12800;SDS011;6464;42.494;27.470;2023-06-22T07:24:54;5.90;;;5.80;;
12800;SDS011;6464;42.494;27.470;2023-06-22T07:27:22;5.70;;;5.60;;
12800;SDS011;6464;42.494;27.470;2023-06-22T07:29:50;5.40;;;5.30;;
12800;SDS011;6464;42.494;27.470;2023-06-22T07:32:16;5.80;;;5.70;;
12800;SDS011;6464;42.494;27.470;2023-06-22T07:34:43;5.70;;;5.60;;
12800;SDS011;6464;42.494;27.470;2023-06-22T07:37:10;6.00;;;5.90;;
12800;SDS011;6464;42.494;27.470;2023-06-22T07:39:37;5.82;;;5.72;;
12800;SDS011;6464;42.494;27.470;2023-06-22T07:42:04;5.85;;;5.75;;
12800;SDS011;6464;42.494;27.470;2023-06-22T07:44:33;5.93;;;5.82;;
12800;SDS011;6464;42.494;27.470;2023-06-22T07:47:00;5.90;;;5.80;;
12800;SDS011;6464;42.494;27.470;2023-06-22T07:49:27;5.93;;;5.82;;
12800;SDS011;6464;42.494;27.470;2023-06-22T07:51:54;6.60;;;6.40;;
12800;SDS011;6464;42.494;27.470;2023-06-22T07:54:21;6.78;;;6.57;;
12800;SDS011;6464;42.494;27.470;2023-06-22T07:56:48;6.53;;;6.32;;
12800;SDS011;6464;42.494;27.470;2023-06-22T07:59:15;6.40;;;6.20;;
12800;SDS011;6464;42.494;27.470;2023-06-22T08:01:43;6.30;;;6.10;;
12800;SDS011;6464;42.494;27.470;2023-06-22T08:04:10;6.10;;;5.97;;
12800;SDS011;6464;42.494;27.470;2023-06-22T08:06:37;6.35;;;6.15;;
12800;SDS011;6464;42.494;27.470;2023-06-22T08:09:04;5.82;;;5.72;;
12800;SDS011;6464;42.494;27.470;2023-06-22T08:11:31;5.90;;;5.80;;
12800;SDS011;6464;42.494;27.470;2023-06-22T08:13:59;6.30;;;6.10;;
12800;SDS011;6464;42.494;27.470;2023-06-22T08:16:26;5.97;;;5.88;;
12800;SDS011;6464;42.494;27.470;2023-06-22T08:18:54;6.05;;;5.93;;
12800;SDS011;6464;42.494;27.470;2023-06-22T08:21:21;6.38;;;6.18;;
12800;SDS011;6464;42.494;27.470;2023-06-22T08:23:48;5.97;;;5.88;;
12800;SDS011;6464;42.494;27.470;2023-06-22T08:26:15;5.90;;;5.80;;
12800;SDS011;6464;42.494;27.470;2023-06-22T08:28:42;6.22;;;6.03;;
12800;SDS011;6464;42.494;27.470;2023-06-22T08:31:09;5.95;;;5.85;;
12800;SDS011;6464;42.494;27.470;2023-06-22T08:33:39;6.03;;;5.93;;
12800;SDS011;6464;42.494;27.470;2023-06-22T08:36:07;6.10;;;5.97;;
12800;SDS011;6464;42.494;27.470;2023-06-22T08:38:36;6.20;;;6.00;;
12800;SDS011;6464;42.494;27.470;2023-06-22T08:41:03;6.40;;;6.20;;
12800;SDS011;6464;42.494;27.470;2023-06-22T08:43:30;6.30;;;6.10;;
12800;SDS011;6464;42.494;27.470;2023-06-22T08:45:56;5.95;;;5.85;;
12800;SDS011;6464;42.494;27.470;2023-06-22T08:48:23;6.30;;;6.10;;
12800;SDS011;6464;42.494;27.470;2023-06-22T08:50:50;6.20;;;6.00;;
12800;SDS011;6464;42.494;27.470;2023-06-22T08:53:19;6.40;;;6.20;;
12800;SDS011;6464;42.494;27.470;2023-06-22T08:55:46;6.00;;;5.90;;
12800;SDS011;6464;42.494;27.470;2023-06-22T08:58:12;6.10;;;5.97;;
12800;SDS011;6464;42.494;27.470;2023-06-22T09:00:39;6.28;;;6.07;;
12800;SDS011;6464;42.494;27.470;2023-06-22T09:03:06;6.60;;;6.40;;
12800;SDS011;6464;42.494;27.470;2023-06-22T09:05:33;6.38;;;6.18;;
12800;SDS011;6464;42.494;27.470;2023-06-22T09:08:00;6.35;;;6.15;;
12800;SDS011;6464;42.494;27.470;2023-06-22T09:10:28;6.00;;;5.90;;
12800;SDS011;6464;42.494;27.470;2023-06-22T09:12:56;6.20;;;6.03;;
12800;SDS011;6464;42.494;27.470;2023-06-22T09:15:23;6.00;;;5.90;;
12800;SDS011;6464;42.494;27.470;2023-06-22T09:17:50;5.88;;;5.78;;
12800;SDS011;6464;42.494;27.470;2023-06-22T09:20:19;6.68;;;6.47;;
12800;SDS011;6464;42.494;27.470;2023-06-22T09:22:46;7.93;;;7.72;;
12800;SDS011;6464;42.494;27.470;2023-06-22T09:25:13;7.45;;;7.25;;
12800;SDS011;6464;42.494;27.470;2023-06-22T09:27:42;7.90;;;7.70;;
12800;SDS011;6464;42.494;27.470;2023-06-22T09:30:09;8.45;;;8.15;;
12800;SDS011;6464;42.494;27.470;2023-06-22T09:32:36;8.05;;;7.85;;
12800;SDS011;6464;42.494;27.470;2023-06-22T09:35:04;6.40;;;6.20;;
12800;SDS011;6464;42.494;27.470;2023-06-22T09:37:33;6.32;;;6.13;;
12800;SDS011;6464;42.494;27.470;2023-06-22T09:40:00;6.20;;;6.00;;
12800;SDS011;6464;42.494;27.470;2023-06-22T09:42:31;6.22;;;6.03;;
12800;SDS011;6464;42.494;27.470;2023-06-22T09:45:00;6.50;;;6.30;;
12800;SDS011;6464;42.494;27.470;2023-06-22T09:47:27;5.97;;;5.88;;
12800;SDS011;6464;42.494;27.470;2023-06-22T09:49:55;6.45;;;6.25;;
12800;SDS011;6464;42.494;27.470;2023-06-22T09:52:24;6.53;;;6.32;;
12800;SDS011;6464;42.494;27.470;2023-06-22T09:54:51;6.90;;;6.70;;
12800;SDS011;6464;42.494;27.470;2023-06-22T09:57:18;6.80;;;6.60;;
12800;SDS011;6464;42.494;27.470;2023-06-22T09:59:45;6.80;;;6.60;;
12800;SDS011;6464;42.494;27.470;2023-06-22T10:02:13;7.00;;;6.80;;
12800;SDS011;6464;42.494;27.470;2023-06-22T10:04:40;7.47;;;7.28;;
12800;SDS011;6464;42.494;27.470;2023-06-22T10:07:07;7.20;;;7.00;;
12800;SDS011;6464;42.494;27.470;2023-06-22T10:09:34;7.25;;;7.05;;
12800;SDS011;6464;42.494;27.470;2023-06-22T10:12:01;7.18;;;6.97;;
12800;SDS011;6464;42.494;27.470;2023-06-22T10:14:28;6.90;;;6.70;;
12800;SDS011;6464;42.494;27.470;2023-06-22T10:16:55;7.30;;;7.10;;
12800;SDS011;6464;42.494;27.470;2023-06-22T10:19:24;7.20;;;7.00;;
12800;SDS011;6464;42.494;27.470;2023-06-22T10:21:50;7.10;;;6.90;;
12800;SDS011;6464;42.494;27.470;2023-06-22T10:24:18;7.20;;;7.00;;
12800;SDS011;6464;42.494;27.470;2023-06-22T10:26:45;7.50;;;7.30;;
12800;SDS011;6464;42.494;27.470;2023-06-22T10:29:12;7.40;;;7.20;;
12800;SDS011;6464;42.494;27.470;2023-06-22T10:31:39;6.95;;;6.75;;
12800;SDS011;6464;42.494;27.470;2023-06-22T10:34:05;7.13;;;6.93;;
12800;SDS011;6464;42.494;27.470;2023-06-22T10:36:34;7.18;;;6.97;;
12800;SDS011;6464;42.494;27.470;2023-06-22T10:39:01;7.13;;;6.93;;
12800;SDS011;6464;42.494;27.470;2023-06-22T10:41:28;7.38;;;7.18;;
12800;SDS011;6464;42.494;27.470;2023-06-22T10:43:56;6.90;;;6.70;;
12800;SDS011;6464;42.494;27.470;2023-06-22T10:46:23;7.10;;;6.90;;
12800;SDS011;6464;42.494;27.470;2023-06-22T10:48:50;7.30;;;7.10;;
12800;SDS011;6464;42.494;27.470;2023-06-22T10:51:19;7.13;;;6.93;;
12800;SDS011;6464;42.494;27.470;2023-06-22T10:53:48;7.20;;;7.00;;
12800;SDS011;6464;42.494;27.470;2023-06-22T10:56:16;7.20;;;7.00;;
12800;SDS011;6464;42.494;27.470;2023-06-22T10:58:44;7.50;;;7.30;;
12800;SDS011;6464;42.494;27.470;2023-06-22T11:01:11;7.85;;;7.65;;
12800;SDS011;6464;42.494;27.470;2023-06-22T11:03:38;7.90;;;7.70;;
12800;SDS011;6464;42.494;27.470;2023-06-22T11:06:05;7.53;;;7.32;;
12800;SDS011;6464;42.494;27.470;2023-06-22T11:08:33;7.30;;;7.10;;
12800;SDS011;6464;42.494;27.470;2023-06-22T11:11:01;7.38;;;7.18;;
12800;SDS011;6464;42.494;27.470;2023-06-22T11:13:28;7.20;;;7.00;;
12800;SDS011;6464;42.494;27.470;2023-06-22T11:15:55;7.10;;;6.90;;
12800;SDS011;6464;42.494;27.470;2023-06-22T11:18:22;7.10;;;6.90;;
12800;SDS011;6464;42.494;27.470;2023-06-22T11:20:49;7.45;;;7.25;;
12800;SDS011;6464;42.494;27.470;2023-06-22T11:23:16;7.40;;;7.20;;
12800;SDS011;6464;42.494;27.470;2023-06-22T11:25:43;7.68;;;7.47;;
12800;SDS011;6464;42.494;27.470;2023-06-22T11:28:12;7.50;;;7.30;;
12800;SDS011;6464;42.494;27.470;2023-06-22T11:30:39;7.70;;;7.50;;
12800;SDS011;6464;42.494;27.470;2023-06-22T11:33:06;7.70;;;7.50;;
12800;SDS011;6464;42.494;27.470;2023-06-22T11:35:33;7.40;;;7.20;;
12800;SDS011;6464;42.494;27.470;2023-06-22T11:38:00;7.68;;;7.47;;
12800;SDS011;6464;42.494;27.470;2023-06-22T11:40:28;7.60;;;7.40;;
12800;SDS011;6464;42.494;27.470;2023-06-22T11:42:55;7.40;;;7.20;;
12800;SDS011;6464;42.494;27.470;2023-06-22T11:45:24;7.60;;;7.40;;
12800;SDS011;6464;42.494;27.470;2023-06-22T11:47:51;7.90;;;7.70;;
12800;SDS011;6464;42.494;27.470;2023-06-22T11:50:18;7.72;;;7.53;;
12800;SDS011;6464;42.494;27.470;2023-06-22T11:52:44;8.02;;;7.82;;
12800;SDS011;6464;42.494;27.470;2023-06-22T11:55:11;7.55;;;7.35;;
12800;SDS011;6464;42.494;27.470;2023-06-22T11:57:39;8.00;;;7.80;;
12800;SDS011;6464;42.494;27.470;2023-06-22T12:00:20;7.80;;;7.60;;
12800;SDS011;6464;42.494;27.470;2023-06-22T12:02:50;7.70;;;7.50;;
12800;SDS011;6464;42.494;27.470;2023-06-22T12:05:18;7.63;;;7.43;;
12800;SDS011;6464;42.494;27.470;2023-06-22T12:07:46;8.45;;;8.15;;
12800;SDS011;6464;42.494;27.470;2023-06-22T12:10:13;8.00;;;7.80;;
12800;SDS011;6464;42.494;27.470;2023-06-22T12:12:40;7.90;;;7.70;;
12800;SDS011;6464;42.494;27.470;2023-06-22T12:15:08;8.18;;;7.90;;
12800;SDS011;6464;42.494;27.470;2023-06-22T12:17:36;7.40;;;7.20;;
12800;SDS011;6464;42.494;27.470;2023-06-22T12:20:05;7.60;;;7.40;;
12800;SDS011;6464;42.494;27.470;2023-06-22T12:22:33;7.20;;;7.00;;
12800;SDS011;6464;42.494;27.470;2023-06-22T12:25:00;7.30;;;7.10;;
12800;SDS011;6464;42.494;27.470;2023-06-22T12:27:27;7.75;;;7.55;;
12800;SDS011;6464;42.494;27.470;2023-06-22T12:29:55;7.80;;;7.60;;
12800;SDS011;6464;42.494;27.470;2023-06-22T12:32:22;8.27;;;8.02;;
12800;SDS011;6464;42.494;27.470;2023-06-22T12:34:50;7.40;;;7.20;;
12800;SDS011;6464;42.494;27.470;2023-06-22T12:37:19;7.20;;;7.00;;
12800;SDS011;6464;42.494;27.470;2023-06-22T12:39:46;7.20;;;7.00;;
12800;SDS011;6464;42.494;27.470;2023-06-22T12:42:12;7.10;;;6.90;;
12800;SDS011;6464;42.494;27.470;2023-06-22T12:44:39;7.25;;;7.05;;
12800;SDS011;6464;42.494;27.470;2023-06-22T12:47:07;7.43;;;7.22;;
12800;SDS011;6464;42.494;27.470;2023-06-22T12:49:34;7.30;;;7.10;;
12800;SDS011;6464;42.494;27.470;2023-06-22T12:52:01;7.75;;;7.55;;
12800;SDS011;6464;42.494;27.470;2023-06-22T12:54:29;7.40;;;7.20;;
12800;SDS011;6464;42.494;27.470;2023-06-22T12:56:56;7.25;;;7.05;;
12800;SDS011;6464;42.494;27.470;2023-06-22T12:59:23;7.65;;;7.45;;
12800;SDS011;6464;42.494;27.470;2023-06-22T13:01:50;7.70;;;7.50;;
12800;SDS011;6464;42.494;27.470;2023-06-22T13:04:17;7.55;;;7.35;;
12800;SDS011;6464;42.494;27.470;2023-06-22T13:06:44;7.78;;;7.57;;
12800;SDS011;6464;42.494;27.470;2023-06-22T13:09:13;7.57;;;7.38;;
12800;SDS011;6464;42.494;27.470;2023-06-22T13:11:42;9.00;;;8.70;;
12800;SDS011;6464;42.494;27.470;2023-06-22T13:14:09;7.70;;;7.50;;
12800;SDS011;6464;42.494;27.470;2023-06-22T13:16:36;8.32;;;8.02;;
12800;SDS011;6464;42.494;27.470;2023-06-22T13:19:03;8.38;;;8.07;;
12800;SDS011;6464;42.494;27.470;2023-06-22T13:21:30;7.88;;;7.68;;
12800;SDS011;6464;42.494;27.470;2023-06-22T13:23:59;8.30;;;8.00;;
12800;SDS011;6464;42.494;27.470;2023-06-22T13:26:26;7.50;;;7.30;;
12800;SDS011;6464;42.494;27.470;2023-06-22T13:28:55;7.32;;;7.13;;
12800;SDS011;6464;42.494;27.470;2023-06-22T13:31:22;7.35;;;7.15;;
12800;SDS011;6464;42.494;27.470;2023-06-22T13:33:49;7.07;;;6.88;;
12800;SDS011;6464;42.494;27.470;2023-06-22T13:36:17;7.40;;;7.20;;
12800;SDS011;6464;42.494;27.470;2023-06-22T13:38:44;7.75;;;7.55;;
12800;SDS011;6464;42.494;27.470;2023-06-22T13:41:12;7.60;;;7.40;;
12800;SDS011;6464;42.494;27.470;2023-06-22T13:43:39;8.00;;;7.80;;
12800;SDS011;6464;42.494;27.470;2023-06-22T13:46:07;7.47;;;7.28;;
12800;SDS011;6464;42.494;27.470;2023-06-22T13:48:34;7.55;;;7.35;;
12800;SDS011;6464;42.494;27.470;2023-06-22T13:51:01;7.80;;;7.60;;
12800;SDS011;6464;42.494;27.470;2023-06-22T13:53:28;7.60;;;7.40;;
12800;SDS011;6464;42.494;27.470;2023-06-22T13:55:55;7.47;;;7.28;;
12800;SDS011;6464;42.494;27.470;2023-06-22T13:58:22;7.50;;;7.30;;
12800;SDS011;6464;42.494;27.470;2023-06-22T14:00:49;7.35;;;7.15;;
12800;SDS011;6464;42.494;27.470;2023-06-22T14:03:17;7.75;;;7.55;;
12800;SDS011;6464;42.494;27.470;2023-06-22T14:05:44;8.13;;;7.90;;
12800;SDS011;6464;42.494;27.470;2023-06-22T14:08:12;7.50;;;7.30;;
12800;SDS011;6464;42.494;27.470;2023-06-22T14:10:40;7.55;;;7.35;;
12800;SDS011;6464;42.494;27.470;2023-06-22T14:13:07;8.07;;;7.88;;
12800;SDS011;6464;42.494;27.470;2023-06-22T14:15:34;8.10;;;7.90;;
12800;SDS011;6464;42.494;27.470;2023-06-22T14:18:01;8.18;;;7.95;;
12800;SDS011;6464;42.494;27.470;2023-06-22T14:20:29;7.43;;;7.22;;
12800;SDS011;6464;42.494;27.470;2023-06-22T14:22:56;7.45;;;7.25;;
12800;SDS011;6464;42.494;27.470;2023-06-22T14:25:23;7.72;;;7.53;;
12800;SDS011;6464;42.494;27.470;2023-06-22T14:27:50;7.90;;;7.70;;
12800;SDS011;6464;42.494;27.470;2023-06-22T14:30:16;7.70;;;7.50;;
12800;SDS011;6464;42.494;27.470;2023-06-22T14:32:43;7.93;;;7.72;;
12800;SDS011;6464;42.494;27.470;2023-06-22T14:35:11;7.90;;;7.70;;
12800;SDS011;6464;42.494;27.470;2023-06-22T14:37:39;7.45;;;7.25;;
12800;SDS011;6464;42.494;27.470;2023-06-22T14:40:06;7.50;;;7.30;;
12800;SDS011;6464;42.494;27.470;2023-06-22T14:42:34;7.40;;;7.20;;
12800;SDS011;6464;42.494;27.470;2023-06-22T14:45:02;7.13;;;6.93;;
12800;SDS011;6464;42.494;27.470;2023-06-22T14:47:29;7.45;;;7.25;;
12800;SDS011;6464;42.494;27.470;2023-06-22T14:49:56;7.80;;;7.60;;
12800;SDS011;6464;42.494;27.470;2023-06-22T14:52:24;7.90;;;7.70;;
12800;SDS011;6464;42.494;27.470;2023-06-22T14:54:52;8.20;;;8.00;;
12800;SDS011;6464;42.494;27.470;2023-06-22T14:57:19;7.90;;;7.70;;
12800;SDS011;6464;42.494;27.470;2023-06-22T14:59:48;7.30;;;7.10;;
12800;SDS011;6464;42.494;27.470;2023-06-22T15:02:15;7.80;;;7.60;;
12800;SDS011;6464;42.494;27.470;2023-06-22T15:04:42;7.65;;;7.45;;
12800;SDS011;6464;42.494;27.470;2023-06-22T15:07:09;7.70;;;7.50;;
12800;SDS011;6464;42.494;27.470;2023-06-22T15:09:36;7.80;;;7.60;;
12800;SDS011;6464;42.494;27.470;2023-06-22T15:12:08;7.90;;;7.70;;
12800;SDS011;6464;42.494;27.470;2023-06-22T15:14:37;7.85;;;7.65;;
12800;SDS011;6464;42.494;27.470;2023-06-22T15:17:04;7.72;;;7.53;;
12800;SDS011;6464;42.494;27.470;2023-06-22T15:19:34;8.45;;;8.15;;
12800;SDS011;6464;42.494;27.470;2023-06-22T15:22:01;8.18;;;7.93;;
12800;SDS011;6464;42.494;27.470;2023-06-22T15:24:29;7.95;;;7.75;;
12800;SDS011;6464;42.494;27.470;2023-06-22T15:26:56;7.90;;;7.70;;
12800;SDS011;6464;42.494;27.470;2023-06-22T15:29:24;8.40;;;8.10;;
12800;SDS011;6464;42.494;27.470;2023-06-22T15:31:51;7.80;;;7.60;;
12800;SDS011;6464;42.494;27.470;2023-06-22T15:34:18;7.65;;;7.45;;
12800;SDS011;6464;42.494;27.470;2023-06-22T15:36:45;7.57;;;7.38;;
12800;SDS011;6464;42.494;27.470;2023-06-22T15:39:12;7.30;;;7.10;;
12800;SDS011;6464;42.494;27.470;2023-06-22T15:41:39;7.43;;;7.22;;
12800;SDS011;6464;42.494;27.470;2023-06-22T15:44:07;7.65;;;7.45;;
12800;SDS011;6464;42.494;27.470;2023-06-22T15:46:35;7.80;;;7.60;;
12800;SDS011;6464;42.494;27.470;2023-06-22T15:49:02;7.63;;;7.43;;
12800;SDS011;6464;42.494;27.470;2023-06-22T15:51:29;7.85;;;7.65;;
12800;SDS011;6464;42.494;27.470;2023-06-22T15:53:56;7.75;;;7.55;;
12800;SDS011;6464;42.494;27.470;2023-06-22T15:56:23;7.70;;;7.50;;
12800;SDS011;6464;42.494;27.470;2023-06-22T15:58:50;7.55;;;7.35;;
12800;SDS011;6464;42.494;27.470;2023-06-22T16:01:17;7.72;;;7.53;;
12800;SDS011;6464;42.494;27.470;2023-06-22T16:03:45;7.40;;;7.20;;
12800;SDS011;6464;42.494;27.470;2023-06-22T16:06:12;6.93;;;6.72;;
12800;SDS011;6464;42.494;27.470;2023-06-22T16:08:39;7.20;;;7.00;;
12800;SDS011;6464;42.494;27.470;2023-06-22T16:11:06;7.18;;;6.97;;
12800;SDS011;6464;42.494;27.470;2023-06-22T16:13:33;6.95;;;6.75;;
12800;SDS011;6464;42.494;27.470;2023-06-22T16:16:00;7.28;;;7.07;;
12800;SDS011;6464;42.494;27.470;2023-06-22T16:18:27;7.00;;;6.80;;
12800;SDS011;6464;42.494;27.470;2023-06-22T16:20:55;6.97;;;6.78;;
12800;SDS011;6464;42.494;27.470;2023-06-22T16:23:22;6.60;;;6.40;;
12800;SDS011;6464;42.494;27.470;2023-06-22T16:25:49;6.05;;;5.95;;
12800;SDS011;6464;42.494;27.470;2023-06-22T16:28:16;5.90;;;5.80;;
12800;SDS011;6464;42.494;27.470;2023-06-22T16:30:43;6.30;;;6.10;;
12800;SDS011;6464;42.494;27.470;2023-06-22T16:33:10;6.00;;;5.90;;
12800;SDS011;6464;42.494;27.470;2023-06-22T16:35:37;6.32;;;6.13;;
12800;SDS011;6464;42.494;27.470;2023-06-22T16:38:07;6.28;;;6.07;;
12800;SDS011;6464;42.494;27.470;2023-06-22T16:40:34;6.10;;;5.97;;
12800;SDS011;6464;42.494;27.470;2023-06-22T16:43:01;6.00;;;5.90;;
12800;SDS011;6464;42.494;27.470;2023-06-22T16:45:28;5.60;;;5.50;;
12800;SDS011;6464;42.494;27.470;2023-06-22T16:47:57;5.40;;;5.30;;
12800;SDS011;6464;42.494;27.470;2023-06-22T16:50:24;5.32;;;5.22;;
12800;SDS011;6464;42.494;27.470;2023-06-22T16:52:52;5.40;;;5.30;;
12800;SDS011;6464;42.494;27.470;2023-06-22T16:55:20;5.30;;;5.20;;
12800;SDS011;6464;42.494;27.470;2023-06-22T16:57:49;5.20;;;5.10;;
12800;SDS011;6464;42.494;27.470;2023-06-22T17:00:17;5.20;;;5.10;;
12800;SDS011;6464;42.494;27.470;2023-06-22T17:02:46;4.90;;;4.80;;
12800;SDS011;6464;42.494;27.470;2023-06-22T17:05:15;4.32;;;4.22;;
12800;SDS011;6464;42.494;27.470;2023-06-22T17:07:45;4.40;;;4.30;;
12800;SDS011;6464;42.494;27.470;2023-06-22T17:10:16;4.32;;;4.22;;
12800;SDS011;6464;42.494;27.470;2023-06-22T17:12:45;4.20;;;4.10;;
12800;SDS011;6464;42.494;27.470;2023-06-22T17:15:13;4.30;;;4.20;;
12800;SDS011;6464;42.494;27.470;2023-06-22T17:17:40;4.30;;;4.20;;
12800;SDS011;6464;42.494;27.470;2023-06-22T17:20:08;4.20;;;4.10;;
12800;SDS011;6464;42.494;27.470;2023-06-22T17:22:37;3.90;;;3.80;;
12800;SDS011;6464;42.494;27.470;2023-06-22T17:25:05;3.30;;;3.30;;
12800;SDS011;6464;42.494;27.470;2023-06-22T17:27:33;3.20;;;3.20;;
12800;SDS011;6464;42.494;27.470;2023-06-22T17:30:06;2.88;;;2.88;;
12800;SDS011;6464;42.494;27.470;2023-06-22T17:32:35;2.50;;;2.50;;
12800;SDS011;6464;42.494;27.470;2023-06-22T17:35:02;2.50;;;2.50;;
12800;SDS011;6464;42.494;27.470;2023-06-22T17:37:32;2.10;;;2.10;;
12800;SDS011;6464;42.494;27.470;2023-06-22T17:40:00;1.80;;;1.80;;
12800;SDS011;6464;42.494;27.470;2023-06-22T17:42:28;1.70;;;1.70;;
12800;SDS011;6464;42.494;27.470;2023-06-22T17:45:00;1.60;;;1.60;;
12800;SDS011;6464;42.494;27.470;2023-06-22T17:47:29;1.55;;;1.55;;
12800;SDS011;6464;42.494;27.470;2023-06-22T17:50:05;1.60;;;1.60;;
12800;SDS011;6464;42.494;27.470;2023-06-22T17:52:33;1.30;;;1.30;;
12800;SDS011;6464;42.494;27.470;2023-06-22T17:55:01;1.30;;;1.30;;
12800;SDS011;6464;42.494;27.470;2023-06-22T17:57:34;1.10;;;1.10;;
12800;SDS011;6464;42.494;27.470;2023-06-22T18:00:03;1.20;;;1.20;;
12800;SDS011;6464;42.494;27.470;2023-06-22T18:02:39;1.10;;;1.10;;
12800;SDS011;6464;42.494;27.470;2023-06-22T18:05:08;1.00;;;1.00;;
12800;SDS011;6464;42.494;27.470;2023-06-22T18:07:36;1.00;;;1.00;;
12800;SDS011;6464;42.494;27.470;2023-06-22T18:10:03;0.70;;;0.70;;
12800;SDS011;6464;42.494;27.470;2023-06-22T18:12:33;0.75;;;0.75;;
12800;SDS011;6464;42.494;27.470;2023-06-22T18:15:01;0.70;;;0.70;;
12800;SDS011;6464;42.494;27.470;2023-06-22T18:17:29;0.70;;;0.70;;
12800;SDS011;6464;42.494;27.470;2023-06-22T18:19:57;0.60;;;0.60;;
12800;SDS011;6464;42.494;27.470;2023-06-22T18:22:25;0.60;;;0.60;;
12800;SDS011;6464;42.494;27.470;2023-06-22T18:24:52;0.60;;;0.60;;
12800;SDS011;6464;42.494;27.470;2023-06-22T18:27:20;0.60;;;0.60;;
12800;SDS011;6464;42.494;27.470;2023-06-22T18:29:49;0.40;;;0.40;;
12800;SDS011;6464;42.494;27.470;2023-06-22T18:32:17;0.40;;;0.40;;
12800;SDS011;6464;42.494;27.470;2023-06-22T18:34:44;0.30;;;0.30;;
12800;SDS011;6464;42.494;27.470;2023-06-22T18:37:13;0.30;;;0.30;;
12800;SDS011;6464;42.494;27.470;2023-06-22T18:39:42;0.30;;;0.30;;
12800;SDS011;6464;42.494;27.470;2023-06-22T18:42:11;0.30;;;0.30;;
12800;SDS011;6464;42.494;27.470;2023-06-22T18:44:41;0.30;;;0.30;;
12800;SDS011;6464;42.494;27.470;2023-06-22T18:47:08;0.30;;;0.30;;
12800;SDS011;6464;42.494;27.470;2023-06-22T18:49:44;0.30;;;0.30;;
12800;SDS011;6464;42.494;27.470;2023-06-22T18:52:15;0.20;;;0.20;;
12800;SDS011;6464;42.494;27.470;2023-06-22T18:54:43;0.20;;;0.20;;
12800;SDS011;6464;42.494;27.470;2023-06-22T18:57:13;0.30;;;0.30;;
12800;SDS011;6464;42.494;27.470;2023-06-22T18:59:48;0.30;;;0.30;;
12800;SDS011;6464;42.494;27.470;2023-06-22T19:05:06;0.20;;;0.20;;
12800;SDS011;6464;42.494;27.470;2023-06-22T19:10:28;0.20;;;0.20;;
12800;SDS011;6464;42.494;27.470;2023-06-22T19:12:58;0.20;;;0.20;;
12800;SDS011;6464;42.494;27.470;2023-06-22T19:15:43;0.20;;;0.20;;
12800;SDS011;6464;42.494;27.470;2023-06-22T19:18:14;0.20;;;0.20;;
12800;SDS011;6464;42.494;27.470;2023-06-22T19:20:42;0.10;;;0.10;;
12800;SDS011;6464;42.494;27.470;2023-06-22T19:23:28;0.10;;;0.10;;
12800;SDS011;6464;42.494;27.470;2023-06-22T19:25:56;0.10;;;0.10;;
12800;SDS011;6464;42.494;27.470;2023-06-22T19:28:24;0.10;;;0.10;;
12800;SDS011;6464;42.494;27.470;2023-06-22T19:30:52;0.10;;;0.10;;
12800;SDS011;6464;42.494;27.470;2023-06-22T19:33:20;0.20;;;0.20;;
12800;SDS011;6464;42.494;27.470;2023-06-22T19:35:48;0.20;;;0.20;;